Time;durP1;ratioP1;P1;durP2;ratioP2;P2;SDS_P1;SDS_P2;PMS_P1;PMS_P2;Temp;Humidity;BMP_temperature;BMP_pressure;BME280_temperature;BME280_humidity;BME280_pressure;Samples;Min_cycle;Max_cycle;Signal;HPM_P1;HPM_P2
2022/10/15 00:00:47;;;;;;;12.95;7.65;;;;;;;6.04;100.00;100421.44;1733969;80;21046;-67
2022/10/15 00:03:15;;;;;;;12.85;7.40;;;;;;;6.00;100.00;100419.19;1731461;80;21137;-67
2022/10/15 00:05:41;;;;;;;;;;;;;;;6.01;100.00;100415.97;1740118;80;21509;-67
2022/10/15 00:08:09;;;;;;;14.20;6.95;;;;;;;6.06;100.00;100416.09;1731712;82;20117;-67
2022/10/15 00:10:35;;;;;;;13.28;7.55;;;;;;;6.05;100.00;100417.17;1729920;82;21054;-67
2022/10/15 00:13:04;;;;;;;13.20;6.60;;;;;;;6.06;100.00;100418.00;1728097;80;21137;-67
2022/10/15 00:15:30;;;;;;;12.18;6.97;;;;;;;6.03;100.00;100413.02;1729505;80;21121;-67
2022/10/15 00:17:57;;;;;;;15.88;8.43;;;;;;;6.01;100.00;100415.97;1736411;80;21054;-67
2022/10/15 00:20:23;;;;;;;14.20;8.03;;;;;;;5.96;100.00;100416.63;1731626;80;21074;-67
2022/10/15 00:22:50;;;;;;;;;;;;;;;5.94;100.00;100417.92;1744038;80;21082;-67
2022/10/15 00:25:16;;;;;;;15.13;8.00;;;;;;;5.91;100.00;100415.15;1741437;82;20943;-67
2022/10/15 00:27:44;;;;;;;17.35;7.70;;;;;;;5.81;100.00;100412.64;1729338;81;21660;-67
2022/10/15 00:30:12;;;;;;;14.25;7.78;;;;;;;5.84;100.00;100413.02;1731696;82;21561;-68
2022/10/15 00:32:40;;;;;;;13.93;7.67;;;;;;;5.91;100.00;100421.91;1736389;82;21074;-68
2022/10/15 00:35:06;;;;;;;;;;;;;;;5.96;100.00;100404.47;1729057;82;21660;-68
2022/10/15 00:37:34;;;;;;;15.20;7.78;;;;;;;5.99;100.00;100405.89;1730399;80;20126;-67
2022/10/15 00:41:29;;;;;;;12.55;8.03;;;;;;;5.94;100.00;100404.41;1797782;78;22963;-67
2022/10/15 00:44:01;;;;;;;14.87;8.13;;;;;;;5.88;100.00;100415.57;1753368;81;21030;-68
2022/10/15 00:46:40;;;;;;;13.65;8.18;;;;;;;5.89;100.00;100412.35;1749180;81;21078;-68
2022/10/15 00:49:19;;;;;;;13.30;7.37;;;;;;;5.91;100.00;100408.91;1753199;81;21540;-68
2022/10/15 00:51:54;;;;;;;14.15;7.42;;;;;;;5.94;100.00;100409.29;1740311;81;21141;-68
2022/10/15 00:54:20;;;;;;;12.80;6.83;;;;;;;5.98;100.00;100406.44;1740918;81;21153;-68
2022/10/15 00:56:48;;;;;;;13.88;6.95;;;;;;;5.99;100.00;100405.37;1752682;81;21070;-67
2022/10/15 00:59:15;;;;;;;11.73;7.33;;;;;;;5.97;100.00;100412.06;1751637;81;21553;-67
2022/10/15 01:01:42;;;;;;;12.98;7.53;;;;;;;5.95;100.00;100406.87;1741530;81;21050;-68
2022/10/15 01:04:08;;;;;;;14.15;7.62;;;;;;;5.94;100.00;100409.29;1753340;81;21022;-67
2022/10/15 01:06:35;;;;;;;10.55;6.40;;;;;;;5.92;100.00;100416.78;1746443;81;21089;-67
2022/10/15 01:09:02;;;;;;;11.53;5.95;;;;;;;5.95;100.00;100408.77;1720916;81;21042;-68
2022/10/15 01:11:47;;;;;;;12.28;6.87;;;;;;;6.00;100.00;100409.73;1746482;81;21060;-67
2022/10/15 01:14:46;;;;;;;11.30;6.55;;;;;;;6.05;100.00;100401.48;1716165;83;21624;-68
2022/10/15 01:17:30;;;;;;;9.73;6.20;;;;;;;6.03;100.00;100403.04;1742173;81;21064;-67
2022/10/15 01:20:21;;;;;;;9.48;5.95;;;;;;;5.98;100.00;100392.09;1743906;81;21065;-66
2022/10/15 01:23:19;;;;;;;12.75;5.95;;;;;;;5.93;100.00;100399.52;1743475;81;21153;-67
2022/10/15 01:26:16;;;;;;;11.08;6.10;;;;;;;5.88;100.00;100391.25;1752841;81;21521;-67
2022/10/15 01:29:16;;;;;;;12.10;5.83;;;;;;;5.83;100.00;100391.61;1697136;82;21011;-67
2022/10/15 01:32:02;;;;;;;13.28;6.05;;;;;;;5.88;100.00;100398.56;1705909;83;21584;-67
2022/10/15 01:34:49;;;;;;;10.03;6.47;;;;;;;5.93;100.00;100392.77;1663096;84;21164;-67
2022/10/15 01:37:45;;;;;;;11.45;5.97;;;;;;;5.91;100.00;100390.83;1700045;83;21089;-67
2022/10/15 01:40:28;;;;;;;11.73;6.03;;;;;;;5.89;100.00;100392.08;1689023;83;21075;-67
2022/10/15 01:43:00;;;;;;;13.00;6.80;;;;;;;5.85;100.00;100393.03;1694213;84;21165;-67
2022/10/15 01:45:49;;;;;;;10.43;6.58;;;;;;;5.82;100.00;100398.05;1674908;84;21562;-67
2022/10/15 01:48:27;;;;;;;;;;;;;;;5.81;100.00;100402.63;1667141;84;21042;-67
2022/10/15 01:50:59;;;;;;;10.53;6.53;;;;;;;5.83;100.00;100407.30;1676551;84;20785;-67
2022/10/15 01:53:26;;;;;;;12.55;7.05;;;;;;;5.85;100.00;100398.95;1650709;84;21025;-67
2022/10/15 01:55:57;;;;;;;;;;;;;;;5.91;100.00;100400.81;1686576;84;21104;-67
2022/10/15 01:58:24;;;;;;;16.30;7.55;;;;;;;5.92;100.00;100399.22;1686585;84;20136;-67
2022/10/15 02:00:51;;;;;;;;;;;;;;;5.82;100.00;100406.99;1694011;84;21052;-66
2022/10/15 02:03:19;;;;;;;13.62;6.78;;;;;;;5.80;100.00;100405.58;1691090;84;20126;-67
2022/10/15 02:06:05;;;;;;;12.63;7.45;;;;;;;5.72;100.00;100407.21;1690055;84;21088;-66
2022/10/15 02:08:42;;;;;;;12.90;7.17;;;;;;;5.71;100.00;100406.90;1685962;84;21023;-66
2022/10/15 02:11:12;;;;;;;13.98;7.10;;;;;;;5.75;100.00;100410.29;1683291;83;21070;-67
2022/10/15 02:14:00;;;;;;;11.78;6.80;;;;;;;5.84;100.00;100410.83;1720635;82;20951;-67
2022/10/15 02:16:58;;;;;;;13.58;6.72;;;;;;;5.87;100.00;100415.81;1750281;81;21066;-67
2022/10/15 02:19:43;;;;;;;11.45;6.65;;;;;;;5.87;100.00;100415.81;1728279;82;21003;-68
2022/10/15 02:22:16;;;;;;;10.43;6.47;;;;;;;5.86;100.00;100416.34;1737472;82;21747;-67
2022/10/15 02:24:54;;;;;;;11.40;6.33;;;;;;;5.87;100.00;100421.22;1740936;81;21018;-67
2022/10/15 02:27:22;;;;;;;11.00;6.40;;;;;;;5.92;100.00;100414.59;1693740;82;21540;-67
2022/10/15 02:29:51;;;;;;;12.20;6.72;;;;;;;6.00;100.00;100422.41;1746185;82;21114;-67
2022/10/15 02:32:20;;;;;;;11.22;6.92;;;;;;;6.03;100.00;100416.55;1738243;81;21123;-67
2022/10/15 02:34:49;;;;;;;15.32;6.78;;;;;;;6.03;100.00;100426.53;1729535;82;21153;-68
2022/10/15 02:37:16;;;;;;;13.38;6.90;;;;;;;6.02;100.00;100418.98;1740933;82;22170;-68
2022/10/15 02:39:45;;;;;;;13.58;7.20;;;;;;;6.02;100.00;100421.69;1698038;83;21062;-67
2022/10/15 02:42:15;;;;;;;12.90;6.78;;;;;;;5.99;100.00;100428.34;1737188;82;21090;-67
2022/10/15 02:44:42;;;;;;;11.57;6.58;;;;;;;6.02;100.00;100424.91;1732255;82;20987;-67
2022/10/15 02:47:09;;;;;;;;;;;;;;;6.05;100.00;100428.50;1741958;82;21074;-67
2022/10/15 02:49:35;;;;;;;12.73;5.72;;;;;;;6.07;100.00;100424.52;1738488;82;20161;-68
2022/10/15 02:52:04;;;;;;;10.23;5.60;;;;;;;6.02;100.00;100427.09;1726190;82;21398;-67
2022/10/15 02:54:31;;;;;;;12.03;5.87;;;;;;;6.03;100.00;100423.31;1728067;82;21033;-67
2022/10/15 02:56:59;;;;;;;12.05;6.33;;;;;;;6.00;100.00;100423.24;1727077;82;21070;-67
2022/10/15 02:59:27;;;;;;;9.50;5.70;;;;;;;5.98;100.00;100418.60;1741651;82;21055;-68
2022/10/15 03:01:54;;;;;;;10.45;6.00;;;;;;;5.96;100.00;100422.04;1733492;80;21100;-67
2022/10/15 03:04:20;;;;;;;;;;;;;;;5.94;100.00;100419.27;1730714;82;20999;-67
2022/10/15 03:06:49;;;;;;;10.55;5.72;;;;;;;5.97;100.00;100420.17;1737289;82;20165;-68
2022/10/15 03:09:16;;;;;;;11.40;6.03;;;;;;;5.95;100.00;100419.58;1734770;82;21632;-68
2022/10/15 03:11:42;;;;;;;12.00;5.75;;;;;;;5.99;100.00;100416.18;1718018;82;21084;-67
2022/10/15 03:14:09;;;;;;;9.83;5.00;;;;;;;5.97;100.00;100425.05;1740214;82;21529;-67
2022/10/15 03:16:37;;;;;;;8.40;4.97;;;;;;;5.95;100.00;100419.03;1735662;82;21071;-67
2022/10/15 03:19:06;;;;;;;9.05;5.37;;;;;;;5.94;100.00;100424.16;1719307;82;20966;-67
2022/10/15 03:24:58;;;;;;;9.85;5.17;;;;;;;6.00;100.00;100414.30;1802018;78;24110;-67
2022/10/15 03:27:26;;;;;;;7.70;4.83;;;;;;;5.96;100.00;100421.20;1739924;80;21085;-67
2022/10/15 03:29:53;;;;;;;9.45;4.80;;;;;;;5.96;100.00;100427.45;1726660;81;21073;-67
2022/10/15 03:32:20;;;;;;;7.70;5.05;;;;;;;5.92;100.00;100422.70;1709462;82;21090;-67
2022/10/15 03:34:47;;;;;;;9.30;5.55;;;;;;;5.90;100.00;100418.89;1726133;81;21058;-67
2022/10/15 03:37:14;;;;;;;9.85;5.87;;;;;;;5.89;100.00;100417.75;1729016;81;21066;-67
2022/10/15 03:39:41;;;;;;;11.68;5.75;;;;;;;5.93;100.00;100427.90;1724961;81;21047;-67
2022/10/15 03:42:08;;;;;;;8.50;5.17;;;;;;;5.99;100.00;100423.45;1710270;83;21105;-67
2022/10/15 03:44:36;;;;;;;10.68;5.60;;;;;;;5.98;100.00;100419.95;1705701;83;21069;-67
2022/10/15 03:47:05;;;;;;;10.08;4.85;;;;;;;5.95;100.00;100420.93;1683103;83;21188;-67
2022/10/15 03:49:34;;;;;;;8.18;5.00;;;;;;;5.91;100.00;100420.55;1698164;83;21081;-67
2022/10/15 03:52:01;;;;;;;8.13;5.03;;;;;;;5.87;100.00;100420.70;1684912;83;21474;-67
2022/10/15 03:54:30;;;;;;;9.18;5.15;;;;;;;5.87;100.00;100416.64;1687928;83;21050;-67
2022/10/15 03:56:56;;;;;;;8.73;4.78;;;;;;;5.92;100.00;100411.89;1691738;83;21046;-67
2022/10/15 03:59:25;;;;;;;11.70;4.53;;;;;;;5.91;100.00;100419.72;1693264;83;21030;-67
2022/10/15 04:01:53;;;;;;;12.43;5.37;;;;;;;5.86;100.00;100420.91;1688285;83;21039;-67
2022/10/15 04:04:20;;;;;;;9.53;5.17;;;;;;;5.79;100.00;100423.66;1710056;83;21026;-68
2022/10/15 04:06:48;;;;;;;9.40;4.87;;;;;;;5.78;100.00;100426.56;1660003;85;21630;-67
2022/10/15 04:09:15;;;;;;;10.93;4.97;;;;;;;5.77;100.00;100424.94;1687565;84;21083;-67
2022/10/15 04:11:42;;;;;;;9.03;5.00;;;;;;;5.78;100.00;100419.81;1684669;84;21150;-67
2022/10/15 04:14:09;;;;;;;7.80;4.90;;;;;;;5.79;100.00;100430.41;1688899;84;21108;-67
2022/10/15 04:16:37;;;;;;;8.78;5.12;;;;;;;5.77;100.00;100427.12;1685658;84;21081;-67
2022/10/15 04:19:07;;;;;;;10.53;5.65;;;;;;;5.71;100.00;100429.86;1695716;84;21157;-67
2022/10/15 04:21:34;;;;;;;9.13;5.35;;;;;;;5.63;100.00;100426.13;1691156;83;21077;-67
2022/10/15 04:24:01;;;;;;;9.40;5.03;;;;;;;5.59;100.00;100429.79;1686708;84;21616;-67
2022/10/15 04:26:31;;;;;;;11.10;5.75;;;;;;;5.60;100.00;100431.97;1683295;84;21669;-67
2022/10/15 04:28:58;;;;;;;9.78;5.03;;;;;;;5.64;100.00;100426.40;1698908;83;21427;-67
2022/10/15 04:31:25;;;;;;;7.60;5.05;;;;;;;5.63;100.00;100427.47;1698322;83;21533;-67
2022/10/15 04:33:52;;;;;;;9.48;5.05;;;;;;;5.59;100.00;100430.31;1689680;83;21323;-67
2022/10/15 04:36:18;;;;;;;;;;;;;;;5.51;100.00;100426.84;1705457;82;21091;-67
2022/10/15 04:38:48;;;;;;;11.03;5.15;;;;;;;5.46;100.00;100425.32;1714839;82;20525;-67
2022/10/15 04:41:16;;;;;;;11.83;5.33;;;;;;;5.33;100.00;100434.90;1720738;82;21150;-67
2022/10/15 04:43:54;;;;;;;;;;;;;;;5.31;100.00;100432.95;1708358;81;21062;-67
2022/10/15 04:46:21;;;;;;;8.63;5.53;;;;;;;5.35;100.00;100435.48;1725251;81;20151;-67
2022/10/15 04:48:49;;;;;;;11.20;5.90;;;;;;;5.33;100.00;100442.17;1689415;83;21038;-67
2022/10/15 04:51:19;;;;;;;15.32;7.62;;;;;;;5.32;100.00;100442.69;1689937;83;21058;-67
2022/10/15 04:54:00;;;;;;;13.20;7.17;;;;;;;5.32;100.00;100442.69;1676079;84;21561;-67
2022/10/15 04:56:28;;;;;;;12.13;7.28;;;;;;;5.32;100.00;100450.78;1734420;81;21499;-67
2022/10/15 04:58:55;;;;;;;13.78;6.95;;;;;;;5.31;100.00;100445.62;1686871;83;21054;-67
2022/10/15 05:01:23;;;;;;;13.53;7.53;;;;;;;5.37;100.00;100452.83;1728919;82;21704;-67
2022/10/15 05:03:51;;;;;;;12.75;6.85;;;;;;;5.43;100.00;100446.02;1739624;81;21058;-67
2022/10/15 05:06:21;;;;;;;13.95;7.35;;;;;;;5.51;100.00;100441.70;1732357;80;21039;-67
2022/10/15 05:08:50;;;;;;;12.75;7.10;;;;;;;5.56;100.00;100445.09;1730273;81;21066;-67
2022/10/15 05:11:25;;;;;;;13.40;7.08;;;;;;;5.57;100.00;100449.42;1718829;82;21142;-67
2022/10/15 05:13:53;;;;;;;15.03;7.33;;;;;;;5.58;100.00;100445.69;1714743;82;21434;-67
2022/10/15 05:16:27;;;;;;;14.47;7.70;;;;;;;5.61;100.00;100443.88;1726448;80;21082;-67
2022/10/15 05:18:57;;;;;;;14.68;7.15;;;;;;;5.64;100.00;100453.41;1721017;81;21083;-67
2022/10/15 05:21:24;;;;;;;17.60;6.92;;;;;;;5.71;100.00;100447.42;1723587;81;21094;-67
2022/10/15 05:23:54;;;;;;;14.23;7.00;;;;;;;5.79;100.00;100449.84;1718600;82;21117;-67
2022/10/15 05:26:26;;;;;;;12.55;7.10;;;;;;;5.86;100.00;100451.47;1710272;82;21122;-68
2022/10/15 05:28:54;;;;;;;15.63;7.62;;;;;;;5.89;100.00;100459.12;1689512;83;20999;-66
2022/10/15 05:31:25;;;;;;;16.05;6.95;;;;;;;5.92;100.00;100453.78;1667663;82;21384;-66
2022/10/15 05:33:54;;;;;;;11.28;6.60;;;;;;;5.98;100.00;100455.61;1688927;83;21114;-65
2022/10/15 05:40:11;;;;;;;10.98;6.47;;;;;;;6.19;100.00;100447.05;1810654;79;23420;-65
2022/10/15 05:42:38;;;;;;;11.35;6.15;;;;;;;6.24;100.00;100453.11;1764157;80;21091;-66
2022/10/15 05:45:07;;;;;;;15.75;8.13;;;;;;;6.32;100.00;100452.30;1776335;80;21589;-67
2022/10/15 05:47:34;;;;;;;12.33;6.35;;;;;;;6.36;100.00;100453.50;1774978;80;21047;-67
2022/10/15 05:50:14;;;;;;;9.28;5.45;;;;;;;6.40;100.00;100456.05;1777865;80;21603;-66
2022/10/15 05:52:42;;;;;;;10.78;5.25;;;;;;;6.42;100.00;100454.45;1769393;80;21526;-65
2022/10/15 05:55:11;;;;;;;12.60;5.30;;;;;;;6.43;100.00;100453.41;1768639;80;21855;-66
2022/10/15 05:57:38;;;;;;;10.70;4.78;;;;;;;6.44;100.00;100457.25;1769414;80;21083;-66
2022/10/15 06:00:07;;;;;;;8.10;4.90;;;;;;;6.52;100.00;100463.41;1768742;80;21053;-65
2022/10/15 06:02:37;;;;;;;8.63;4.72;;;;;;;6.66;100.00;100459.47;1766226;80;21059;-65
2022/10/15 06:05:05;;;;;;;;;;;;;;;6.78;100.00;100457.09;1775951;80;21123;-66
2022/10/15 06:07:33;;;;;;;9.83;4.58;;;;;;;6.88;100.00;100464.13;1771564;80;20127;-67
2022/10/15 06:10:02;;;;;;;8.45;4.58;;;;;;;6.89;100.00;100460.91;1746387;80;21076;-66
2022/10/15 06:12:30;;;;;;;6.97;3.83;;;;;;;6.94;100.00;100463.20;1710259;81;21103;-67
2022/10/15 06:14:56;;;;;;;8.53;4.25;;;;;;;7.00;100.00;100470.95;1691401;83;21082;-66
2022/10/15 06:17:23;;;;;;;8.13;4.33;;;;;;;7.06;100.00;100465.95;1722890;82;21405;-67
2022/10/15 06:19:51;;;;;;;11.33;4.87;;;;;;;7.13;100.00;100468.56;1722595;82;21611;-66
2022/10/15 06:22:17;;;;;;;9.00;4.53;;;;;;;7.23;100.00;100468.29;1718885;81;21165;-67
2022/10/15 06:24:44;;;;;;;;;;;;;;;7.33;100.00;100465.83;1721723;82;21695;-68
2022/10/15 06:27:12;;;;;;;7.40;4.22;;;;;;;7.39;100.00;100467.63;1714563;82;20138;-66
2022/10/15 06:29:39;;;;;;;7.90;4.35;;;;;;;7.37;100.00;100473.80;1723376;81;21031;-67
2022/10/15 06:32:10;;;;;;;8.73;4.35;;;;;;;7.40;100.00;100473.33;1722943;81;21098;-67
2022/10/15 06:34:40;;;;;;;8.80;4.70;;;;;;;7.48;100.00;100469.45;1727158;82;21086;-67
2022/10/15 06:37:06;;;;;;;6.67;3.70;;;;;;;7.61;100.00;100480.62;1726422;81;21137;-67
2022/10/15 06:39:33;;;;;;;7.95;4.17;;;;;;;7.72;100.00;100476.53;1719330;82;21122;-67
2022/10/15 06:42:00;;;;;;;6.60;3.90;;;;;;;7.83;100.00;100485.77;1723441;83;21089;-66
2022/10/15 06:44:28;;;;;;;9.90;4.42;;;;;;;7.91;100.00;100478.08;1702261;83;21063;-67
2022/10/15 06:46:55;;;;;;;6.55;4.08;;;;;;;8.03;100.00;100482.67;1717210;81;21063;-67
2022/10/15 06:49:21;;;;;;;7.87;4.20;;;;;;;8.12;100.00;100481.23;1709976;81;21058;-67
2022/10/15 06:51:48;;;;;;;9.80;4.40;;;;;;;8.25;100.00;100481.01;1705411;83;21086;-66
2022/10/15 06:54:14;;;;;;;6.03;3.87;;;;;;;8.39;100.00;100477.83;1708660;83;21544;-67
2022/10/15 06:56:41;;;;;;;7.20;3.52;;;;;;;8.55;100.00;100478.95;1713878;82;21095;-67
2022/10/15 06:59:08;;;;;;;7.53;4.03;;;;;;;8.73;100.00;100486.92;1713610;81;21090;-68
2022/10/15 07:01:34;;;;;;;6.78;3.75;;;;;;;8.96;100.00;100487.38;1720082;83;21090;-68
2022/10/15 07:04:00;;;;;;;;;;;;;;;9.20;100.00;100486.19;1724824;83;21058;-67
2022/10/15 07:06:27;;;;;;;6.67;4.50;;;;;;;9.44;100.00;100481.43;1713268;81;20118;-68
2022/10/15 07:08:53;;;;;;;8.85;4.87;;;;;;;9.62;100.00;100476.28;1712930;83;21070;-68
2022/10/15 07:11:21;;;;;;;7.67;4.50;;;;;;;9.92;100.00;100482.18;1716787;83;21554;-68
2022/10/15 07:13:48;;;;;;;8.40;3.50;;;;;;;10.26;100.00;100482.45;1724204;83;21063;-68
2022/10/15 07:16:15;;;;;;;9.88;3.40;;;;;;;10.60;100.00;100475.52;1719152;83;21062;-68
2022/10/15 07:18:41;;;;;;;7.33;3.92;;;;;;;10.95;100.00;100479.47;1767459;80;21541;-69
2022/10/15 07:21:09;;;;;;;5.28;3.67;;;;;;;11.25;100.00;100475.41;1773485;80;21027;-68
2022/10/15 07:23:35;;;;;;;5.28;3.12;;;;;;;11.51;100.00;100478.66;1718153;83;21074;-67
2022/10/15 07:26:02;;;;;;;5.55;3.17;;;;;;;11.75;100.00;100477.25;1765469;80;20999;-68
2022/10/15 07:28:29;;;;;;;8.15;3.20;;;;;;;11.97;100.00;100475.77;1778601;80;21463;-68
2022/10/15 07:31:01;;;;;;;8.53;3.55;;;;;;;12.04;100.00;100477.73;1769191;80;21047;-68
2022/10/15 07:33:29;;;;;;;7.85;2.98;;;;;;;12.17;100.00;100470.97;1762545;80;20959;-69
2022/10/15 07:36:05;;;;;;;7.62;3.35;;;;;;;12.31;100.00;100476.23;1767252;80;20963;-68
2022/10/15 07:38:32;;;;;;;5.03;2.60;;;;;;;12.50;100.00;100478.80;1760739;80;21003;-68
2022/10/15 07:41:00;;;;;;;6.67;2.47;;;;;;;12.66;100.00;100478.30;1772139;80;21467;-68
2022/10/15 07:43:27;;;;;;;5.53;2.75;;;;;;;12.72;100.00;100469.84;1774584;80;20947;-69
2022/10/15 07:45:54;;;;;;;4.20;2.00;;;;;;;12.76;100.00;100470.13;1760432;80;21051;-69
2022/10/15 07:48:20;;;;;;;6.83;2.60;;;;;;;12.82;100.00;100474.55;1774752;80;21094;-69
2022/10/15 07:50:56;;;;;;;6.20;3.80;;;;;;;12.83;100.00;100470.16;1783122;80;21160;-69
2022/10/15 07:53:22;;;;;;;4.60;2.22;;;;;;;12.88;100.00;100476.19;1777227;80;21030;-69
2022/10/15 07:55:51;;;;;;;5.22;2.45;;;;;;;13.00;100.00;100480.06;1783437;80;21038;-68
2022/10/15 07:58:17;;;;;;;6.90;3.98;;;;;;;13.19;100.00;100477.93;1768110;80;21109;-68
2022/10/15 08:00:44;;;;;;;12.85;7.00;;;;;;;13.42;100.00;100475.23;1773492;80;21069;-68
2022/10/15 08:03:10;;;;;;;;;;;;;;;13.55;100.00;100474.69;1775451;80;21113;-70
2022/10/15 08:05:37;;;;;;;7.20;3.12;;;;;;;13.64;100.00;100477.71;1758262;80;20163;-67
2022/10/15 08:08:03;;;;;;;3.45;1.47;;;;;;;13.58;100.00;100470.03;1767297;79;21149;-67
2022/10/15 08:10:30;;;;;;;4.08;1.65;;;;;;;13.66;100.00;100477.70;1774882;80;21010;-66
2022/10/15 08:12:58;;;;;;;3.87;1.55;;;;;;;13.71;100.00;100464.58;1764356;80;21063;-67
2022/10/15 08:15:26;;;;;;;6.42;2.58;;;;;;;13.71;100.00;100471.41;1770188;79;21046;-67
2022/10/15 08:17:53;;;;;;;5.03;2.02;;;;;;;13.74;100.00;100466.75;1778069;80;21114;-67
2022/10/15 08:20:19;;;;;;;;;;;;;;;13.72;100.00;100462.91;1783151;80;21499;-68
2022/10/15 08:22:45;;;;;;;4.95;1.90;;;;;;;13.72;100.00;100463.45;1768228;80;20563;-68
2022/10/15 08:25:12;;;;;;;5.00;1.77;;;;;;;13.73;100.00;100467.30;1767719;79;21321;-67
2022/10/15 08:27:38;;;;;;;4.90;2.20;;;;;;;13.95;100.00;100465.09;1765187;80;21054;-68
2022/10/15 08:30:06;;;;;;;4.37;2.15;;;;;;;14.14;100.00;100461.20;1764612;80;21090;-68
2022/10/15 08:32:33;;;;;;;2.62;1.60;;;;;;;14.28;100.00;100462.25;1785231;80;21542;-67
2022/10/15 08:34:59;;;;;;;;;;;;;;;14.31;98.28;100461.69;1787690;80;20991;-67
2022/10/15 08:37:26;;;;;;;4.15;2.75;;;;;;;14.33;96.87;100455.41;1762539;80;20102;-67
2022/10/15 08:39:53;;;;;;;3.92;1.90;;;;;;;14.23;95.13;100462.83;1772475;80;21035;-68
2022/10/15 08:42:21;;;;;;;;;;;;;;;14.21;95.12;100469.94;1778619;80;21087;-67
2022/10/15 08:44:55;;;;;;;5.92;2.02;;;;;;;14.24;94.92;100465.84;1750463;80;20131;-67
2022/10/15 08:47:33;;;;;;;3.75;1.50;;;;;;;14.22;97.02;100466.66;1754077;81;21083;-68
2022/10/15 08:50:04;;;;;;;3.17;1.60;;;;;;;14.36;96.31;100461.72;1775638;81;21602;-66
2022/10/15 08:52:47;;;;;;;4.08;1.60;;;;;;;14.49;95.74;100470.45;1756623;80;21121;-67
2022/10/15 08:55:16;;;;;;;5.78;2.00;;;;;;;14.57;93.83;100461.09;1744769;81;21133;-67
2022/10/15 08:58:03;;;;;;;4.55;2.02;;;;;;;14.67;94.61;100462.95;1744129;82;21726;-67
2022/10/15 09:00:38;;;;;;;3.95;1.77;;;;;;;14.82;93.62;100471.94;1752534;81;21059;-68
2022/10/15 09:03:26;;;;;;;3.12;1.72;;;;;;;14.95;92.02;100460.89;1752239;80;21084;-67
2022/10/15 09:05:58;;;;;;;3.65;1.62;;;;;;;14.97;89.35;100464.73;1761827;81;21051;-66
2022/10/15 09:08:43;;;;;;;3.15;1.52;;;;;;;14.82;88.11;100455.49;1745148;82;21043;-67
2022/10/15 09:11:21;;;;;;;2.80;1.40;;;;;;;14.80;89.02;100450.86;1759103;80;21863;-67
2022/10/15 09:13:48;;;;;;;3.25;1.60;;;;;;;14.86;89.42;100452.46;1751333;81;21043;-66
2022/10/15 09:16:21;;;;;;;3.50;1.70;;;;;;;14.87;86.42;100449.17;1751333;81;21192;-67
2022/10/15 09:18:51;;;;;;;4.47;1.67;;;;;;;14.72;84.79;100453.36;1765234;81;20996;-66
2022/10/15 09:21:19;;;;;;;5.05;2.30;;;;;;;14.64;86.94;100450.64;1739461;82;21064;-67
2022/10/15 09:23:45;;;;;;;5.28;1.90;;;;;;;14.69;87.96;100452.55;1747857;80;21007;-66
2022/10/15 09:26:27;;;;;;;4.03;1.72;;;;;;;14.76;87.78;100451.70;1750398;81;21019;-67
2022/10/15 09:29:15;;;;;;;3.52;1.85;;;;;;;14.78;87.39;100456.33;1756544;80;21043;-68
2022/10/15 09:32:07;;;;;;;4.47;2.00;;;;;;;14.80;86.50;100458.25;1767790;79;21426;-67
2022/10/15 09:34:53;;;;;;;6.50;2.02;;;;;;;14.80;86.80;100448.12;1758947;80;21047;-66
2022/10/15 09:37:47;;;;;;;5.72;1.85;;;;;;;14.88;88.35;100453.53;1770600;80;21075;-66
2022/10/15 09:40:42;;;;;;;3.65;1.90;;;;;;;15.01;88.76;100453.47;1764849;80;21039;-67
2022/10/15 09:43:08;;;;;;;3.55;1.90;;;;;;;15.10;87.50;100441.61;1765801;80;21023;-68
2022/10/15 09:45:35;;;;;;;3.85;1.62;;;;;;;15.18;86.88;100445.68;1759709;79;21106;-67
2022/10/15 09:48:05;;;;;;;;;;;;;;;15.16;85.33;100449.27;1732211;81;21055;-68
2022/10/15 09:50:40;;;;;;;3.40;1.95;;;;;;;15.11;85.39;100437.77;1742514;82;20115;-68
2022/10/15 09:53:34;;;;;;;4.37;1.90;;;;;;;15.04;85.54;100444.67;1684863;85;21063;-68
2022/10/15 09:56:12;;;;;;;4.72;2.02;;;;;;;14.98;86.41;100438.42;1669778;84;21039;-67
2022/10/15 09:58:53;;;;;;;3.40;1.90;;;;;;;14.95;87.30;100443.89;1690254;84;21043;-68
2022/10/15 10:01:28;;;;;;;6.22;3.20;;;;;;;14.89;84.27;100444.21;1737773;81;21040;-67
2022/10/15 10:04:15;;;;;;;5.53;2.17;;;;;;;14.72;84.89;100457.47;1728980;82;21022;-68
2022/10/15 10:06:56;;;;;;;5.08;2.65;;;;;;;14.59;84.00;100452.60;1731600;82;21950;-66
2022/10/15 10:09:31;;;;;;;3.62;1.60;;;;;;;14.47;83.69;100456.20;1770594;81;21530;-66
2022/10/15 10:12:02;;;;;;;4.15;1.65;;;;;;;14.28;82.65;100455.41;1760073;79;21035;-66
2022/10/15 10:14:37;;;;;;;6.87;3.12;;;;;;;14.16;83.80;100465.05;1776061;80;21023;-66
2022/10/15 10:17:15;;;;;;;10.25;5.58;;;;;;;14.14;84.67;100458.45;1745174;81;21620;-66
2022/10/15 10:19:45;;;;;;;5.25;2.40;;;;;;;14.16;85.93;100456.28;1764076;80;21043;-65
2022/10/15 10:22:18;;;;;;;3.52;1.50;;;;;;;14.19;85.66;100448.88;1769760;79;20955;-66
2022/10/15 10:24:46;;;;;;;9.23;4.40;;;;;;;14.20;85.68;100449.70;1764250;80;21014;-67
2022/10/15 10:27:26;;;;;;;6.42;4.80;;;;;;;14.15;84.62;100458.74;1752288;80;21008;-66
2022/10/15 10:29:58;;;;;;;5.70;2.47;;;;;;;14.12;85.63;100453.00;1766531;80;21343;-67
2022/10/15 10:32:31;;;;;;;6.60;3.30;;;;;;;14.14;86.14;100461.74;1769904;81;21192;-66
2022/10/15 10:34:58;;;;;;;5.08;2.58;;;;;;;14.19;86.07;100459.83;1765528;81;21495;-66
2022/10/15 10:37:25;;;;;;;6.25;2.40;;;;;;;14.22;86.28;100452.42;1761700;80;21023;-66
2022/10/15 10:39:56;;;;;;;5.37;2.40;;;;;;;14.28;86.67;100450.48;1757784;80;21553;-67
2022/10/15 10:42:37;;;;;;;6.80;2.00;;;;;;;14.28;85.65;100443.08;1765732;80;21604;-68
2022/10/15 10:45:18;;;;;;;4.20;2.08;;;;;;;14.27;84.70;100445.58;1759423;80;21011;-67
2022/10/15 10:47:45;;;;;;;3.98;1.92;;;;;;;14.27;86.90;100436.53;1714009;83;21034;-67
2022/10/15 10:50:33;;;;;;;4.28;1.72;;;;;;;14.32;87.34;100440.06;1718427;82;20979;-68
2022/10/15 10:53:23;;;;;;;4.67;1.50;;;;;;;14.33;85.18;100429.39;1716295;83;21719;-67
2022/10/15 10:55:51;;;;;;;7.70;3.92;;;;;;;14.34;86.30;100431.61;1700714;83;21019;-66
2022/10/15 10:58:21;;;;;;;13.55;8.35;;;;;;;14.35;85.87;100434.05;1716825;83;21098;-66
2022/10/15 11:00:51;;;;;;;13.78;7.60;;;;;;;14.38;85.48;100431.33;1721627;82;21043;-67
2022/10/15 11:03:30;;;;;;;8.10;6.17;;;;;;;14.43;85.99;100433.48;1714684;82;21610;-67
2022/10/15 11:06:30;;;;;;;3.62;1.77;;;;;;;14.43;85.63;100433.48;1714364;82;21022;-68
2022/10/15 11:09:18;;;;;;;4.00;2.00;;;;;;;14.50;86.58;100431.80;1725402;82;21636;-67
2022/10/15 11:12:04;;;;;;;9.25;4.22;;;;;;;14.58;85.28;100432.60;1711684;83;21173;-67
2022/10/15 11:15:11;;;;;;;4.40;2.47;;;;;;;14.53;84.22;100427.67;1716736;83;21046;-67
2022/10/15 11:18:22;;;;;;;5.78;2.30;;;;;;;14.49;84.08;100425.25;1721730;82;21069;-68
2022/10/15 11:21:11;;;;;;;3.40;1.45;;;;;;;14.47;85.70;100421.41;1699989;82;21032;-68
2022/10/15 11:23:54;;;;;;;5.87;1.95;;;;;;;14.56;86.72;100426.56;1708546;83;21546;-68
2022/10/15 11:26:48;;;;;;;8.18;4.50;;;;;;;14.62;83.17;100417.23;1730617;81;21086;-65
2022/10/15 11:29:40;;;;;;;6.30;2.33;;;;;;;14.60;82.44;100414.49;1720972;82;21062;-67
2022/10/15 11:32:45;;;;;;;6.28;2.52;;;;;;;14.57;84.39;100417.25;1715132;82;21019;-67
2022/10/15 11:35:32;;;;;;;6.78;3.45;;;;;;;14.59;82.50;100421.09;1712277;83;21644;-66
2022/10/15 11:38:38;;;;;;;6.00;2.13;;;;;;;14.54;82.37;100430.69;1703748;83;21060;-67
2022/10/15 11:41:34;;;;;;;5.12;2.17;;;;;;;14.59;83.52;100415.06;1693493;83;21073;-67
2022/10/15 11:44:15;;;;;;;5.25;3.27;;;;;;;14.60;82.32;100415.86;1705439;83;21325;-67
2022/10/15 11:47:02;;;;;;;7.35;4.78;;;;;;;14.63;82.77;100418.06;1702302;83;21165;-67
2022/10/15 11:50:21;;;;;;;5.95;3.83;;;;;;;14.68;82.36;100414.73;1679004;83;20988;-67
2022/10/15 11:53:02;;;;;;;9.53;2.42;;;;;;;14.68;82.45;100411.99;1747970;80;21062;-67
2022/10/15 11:55:41;;;;;;;5.45;3.15;;;;;;;14.67;83.37;100410.89;1743205;81;21470;-67
2022/10/15 11:58:16;;;;;;;9.10;5.40;;;;;;;14.61;82.35;100409.29;1741475;82;21090;-67